UAL1506 KDEN-KSFO
Flight info
| Callsign | UAL1506 |
|---|---|
| Flight time | 2h 23m |
| Altitude | 36000 |
| Route | COORZ7 VOAXA Q136 OAL INYOE DYAMD5 |
| Aircraft | B752/M-SDE3FGHIJ4J7M3P2RWXYZ/LB1D1 |
Departure
| Time | 2026-05-05 01:56 |
|---|---|
| Airport | Denver International Airport (KDEN) |
Arrival
| Time | 2026-05-05 04:19 |
|---|---|
| Airport | San Francisco International Airport (KSFO) |
| Time | Latitude | Longitude | Altitude | Speed | Heading |
|---|---|---|---|---|---|
| 2026-05-05 01:04 | 39.85939 | -104.67454 | 5397 ft | 0 kts | 180° |
| 2026-05-05 01:39 | 39.85949 | -104.67454 | 5397 ft | 2 kts | 182° |
| 2026-05-05 01:39 | 39.85965 | -104.67454 | 5396 ft | 2 kts | 182° |
| 2026-05-05 01:40 | 39.85979 | -104.67453 | 5396 ft | 2 kts | 181° |
| 2026-05-05 01:40 | 39.85994 | -104.67453 | 5395 ft | 2 kts | 181° |
| 2026-05-05 01:40 | 39.86009 | -104.67452 | 5395 ft | 2 kts | 181° |
| 2026-05-05 01:40 | 39.86024 | -104.67451 | 5394 ft | 2 kts | 181° |
| 2026-05-05 01:41 | 39.86036 | -104.67451 | 5394 ft | 0 kts | 181° |
| 2026-05-05 01:46 | 39.86035 | -104.67451 | 5393 ft | 0 kts | 181° |
| 2026-05-05 01:46 | 39.86013 | -104.67480 | 5393 ft | 9 kts | 259° |
| 2026-05-05 01:46 | 39.86011 | -104.67577 | 5387 ft | 10 kts | 269° |
| 2026-05-05 01:47 | 39.86012 | -104.67672 | 5382 ft | 10 kts | 270° |
| 2026-05-05 01:47 | 39.86012 | -104.67785 | 5375 ft | 13 kts | 270° |
| 2026-05-05 01:47 | 39.86013 | -104.67912 | 5367 ft | 14 kts | 271° |
| 2026-05-05 01:47 | 39.86016 | -104.68054 | 5357 ft | 16 kts | 268° |
| 2026-05-05 01:48 | 39.86018 | -104.68200 | 5348 ft | 16 kts | 281° |
| 2026-05-05 01:48 | 39.86032 | -104.68343 | 5340 ft | 15 kts | 259° |
| 2026-05-05 01:48 | 39.85991 | -104.68398 | 5338 ft | 4 kts | 179° |
| 2026-05-05 01:48 | 39.85936 | -104.68408 | 5337 ft | 9 kts | 202° |
| 2026-05-05 01:49 | 39.85933 | -104.68410 | 5337 ft | 0 kts | 205° |
| 2026-05-05 01:49 | 39.85923 | -104.68416 | 5337 ft | 0 kts | 203° |
| 2026-05-05 01:49 | 39.85905 | -104.68417 | 5337 ft | 5 kts | 173° |
| 2026-05-05 01:50 | 39.85855 | -104.68399 | 5338 ft | 9 kts | 172° |
| 2026-05-05 01:50 | 39.85743 | -104.68399 | 5338 ft | 20 kts | 179° |
| 2026-05-05 01:50 | 39.85587 | -104.68401 | 5333 ft | 23 kts | 180° |
| 2026-05-05 01:50 | 39.85449 | -104.68404 | 5330 ft | 17 kts | 180° |
| 2026-05-05 01:51 | 39.85327 | -104.68404 | 5328 ft | 17 kts | 180° |
| 2026-05-05 01:51 | 39.85219 | -104.68424 | 5324 ft | 13 kts | 223° |
| 2026-05-05 01:51 | 39.85204 | -104.68567 | 5313 ft | 18 kts | 270° |
| 2026-05-05 01:51 | 39.85204 | -104.68751 | 5305 ft | 21 kts | 271° |
| 2026-05-05 01:52 | 39.85201 | -104.68956 | 5296 ft | 23 kts | 267° |
| 2026-05-05 01:52 | 39.85195 | -104.69166 | 5294 ft | 22 kts | 269° |
| 2026-05-05 01:52 | 39.85199 | -104.69360 | 5297 ft | 20 kts | 271° |
| 2026-05-05 01:52 | 39.85201 | -104.69493 | 5301 ft | 7 kts | 270° |
| 2026-05-05 01:53 | 39.85201 | -104.69513 | 5302 ft | 0 kts | 270° |
| 2026-05-05 01:53 | 39.85201 | -104.69550 | 5304 ft | 8 kts | 270° |
| 2026-05-05 01:53 | 39.85204 | -104.69635 | 5307 ft | 1 kts | 302° |
| 2026-05-05 01:54 | 39.85221 | -104.69657 | 5307 ft | 4 kts | 330° |
| 2026-05-05 01:54 | 39.85235 | -104.69660 | 5306 ft | 0 kts | 0° |
| 2026-05-05 01:54 | 39.85245 | -104.69660 | 5305 ft | 4 kts | 0° |
| 2026-05-05 01:55 | 39.85344 | -104.69659 | 5300 ft | 31 kts | 0° |
| 2026-05-05 01:55 | 39.85841 | -104.69653 | 5278 ft | 110 kts | 0° |
| 2026-05-05 01:55 | 39.86843 | -104.69645 | 5286 ft | 174 kts | 0° |
| 2026-05-05 01:55 | 39.88179 | -104.69624 | 5606 ft | 204 kts | 1° |
| 2026-05-05 01:56 | 39.89658 | -104.69553 | 6278 ft | 226 kts | 2° |
| 2026-05-05 01:56 | 39.91294 | -104.69515 | 7002 ft | 237 kts | 0° |
| 2026-05-05 01:56 | 39.92860 | -104.69486 | 7591 ft | 219 kts | 0° |
| 2026-05-05 01:56 | 39.94321 | -104.69534 | 8115 ft | 201 kts | 352° |
| 2026-05-05 01:57 | 39.95673 | -104.69923 | 8926 ft | 201 kts | 335° |
| 2026-05-05 01:57 | 39.96860 | -104.70890 | 9555 ft | 205 kts | 314° |
| 2026-05-05 01:57 | 39.97713 | -104.72358 | 10175 ft | 206 kts | 294° |
| 2026-05-05 01:57 | 39.98127 | -104.74110 | 10858 ft | 204 kts | 275° |
| 2026-05-05 01:58 | 39.98122 | -104.75949 | 11420 ft | 209 kts | 265° |
| 2026-05-05 01:58 | 39.97910 | -104.77872 | 11901 ft | 221 kts | 257° |
| 2026-05-05 01:58 | 39.97487 | -104.79843 | 12422 ft | 231 kts | 251° |
| 2026-05-05 01:58 | 39.96922 | -104.81825 | 12960 ft | 242 kts | 250° |
| 2026-05-05 01:59 | 39.96349 | -104.84010 | 13168 ft | 267 kts | 254° |
| 2026-05-05 01:59 | 39.95781 | -104.86407 | 13470 ft | 288 kts | 254° |
| 2026-05-05 01:59 | 39.95139 | -104.89002 | 13536 ft | 319 kts | 253° |
| 2026-05-05 01:59 | 39.94418 | -104.91708 | 14561 ft | 311 kts | 253° |
| 2026-05-05 02:00 | 39.93739 | -104.94285 | 15648 ft | 304 kts | 253° |
| 2026-05-05 02:00 | 39.93061 | -104.96890 | 16379 ft | 307 kts | 253° |
| 2026-05-05 02:00 | 39.92374 | -104.99540 | 17031 ft | 313 kts | 254° |
| 2026-05-05 02:00 | 39.91681 | -105.02207 | 17902 ft | 310 kts | 254° |
| 2026-05-05 02:01 | 39.90992 | -105.04871 | 18468 ft | 317 kts | 255° |
| 2026-05-05 02:01 | 39.90290 | -105.07577 | 19268 ft | 316 kts | 254° |
| 2026-05-05 02:01 | 39.89584 | -105.10297 | 19964 ft | 318 kts | 254° |
| 2026-05-05 02:01 | 39.88878 | -105.13021 | 20557 ft | 322 kts | 253° |
| 2026-05-05 02:02 | 39.88167 | -105.15754 | 21231 ft | 323 kts | 253° |
| 2026-05-05 02:02 | 39.87448 | -105.18512 | 21878 ft | 325 kts | 253° |
| 2026-05-05 02:02 | 39.86724 | -105.21293 | 22555 ft | 325 kts | 253° |
| 2026-05-05 02:02 | 39.85993 | -105.24094 | 23108 ft | 329 kts | 253° |
| 2026-05-05 02:03 | 39.85350 | -105.26942 | 23681 ft | 330 kts | 262° |
| 2026-05-05 02:03 | 39.85246 | -105.29910 | 24245 ft | 331 kts | 272° |
| 2026-05-05 02:03 | 39.85309 | -105.32865 | 24879 ft | 330 kts | 272° |
| 2026-05-05 02:03 | 39.85361 | -105.35844 | 25454 ft | 331 kts | 272° |
| 2026-05-05 02:04 | 39.85419 | -105.38830 | 25908 ft | 335 kts | 272° |
| 2026-05-05 02:04 | 39.85482 | -105.41843 | 26549 ft | 333 kts | 272° |
| 2026-05-05 02:04 | 39.85543 | -105.44848 | 27105 ft | 333 kts | 272° |
| 2026-05-05 02:04 | 39.85604 | -105.47900 | 27205 ft | 347 kts | 272° |
| 2026-05-05 02:05 | 39.85660 | -105.51109 | 27217 ft | 362 kts | 272° |
| 2026-05-05 02:05 | 39.85718 | -105.54434 | 27282 ft | 375 kts | 272° |
| 2026-05-05 02:05 | 39.85778 | -105.57851 | 27614 ft | 380 kts | 272° |
| 2026-05-05 02:05 | 39.85847 | -105.61243 | 28315 ft | 375 kts | 272° |
| 2026-05-05 02:06 | 39.85916 | -105.64660 | 28622 ft | 380 kts | 272° |
| 2026-05-05 02:06 | 39.85985 | -105.68101 | 29135 ft | 380 kts | 272° |
| 2026-05-05 02:06 | 39.86015 | -105.71535 | 29463 ft | 386 kts | 268° |
| 2026-05-05 02:06 | 39.85759 | -105.75032 | 29477 ft | 398 kts | 265° |
| 2026-05-05 02:07 | 39.85457 | -105.78651 | 29479 ft | 409 kts | 265° |
| 2026-05-05 02:07 | 39.85141 | -105.82391 | 29720 ft | 414 kts | 265° |
| 2026-05-05 02:07 | 39.84831 | -105.86040 | 30315 ft | 410 kts | 264° |
| 2026-05-05 02:07 | 39.84513 | -105.89747 | 30582 ft | 412 kts | 264° |
| 2026-05-05 02:08 | 39.84199 | -105.93381 | 31300 ft | 404 kts | 265° |
| 2026-05-05 02:08 | 39.83889 | -105.96970 | 31905 ft | 397 kts | 265° |
| 2026-05-05 02:08 | 39.83584 | -106.00475 | 32539 ft | 389 kts | 264° |
| 2026-05-05 02:08 | 39.83281 | -106.03900 | 33279 ft | 378 kts | 265° |
| 2026-05-05 02:09 | 39.82990 | -106.07208 | 34288 ft | 364 kts | 264° |
| 2026-05-05 02:09 | 39.82705 | -106.10441 | 34844 ft | 359 kts | 264° |
| 2026-05-05 02:09 | 39.82426 | -106.13640 | 35429 ft | 353 kts | 263° |
| 2026-05-05 02:09 | 39.82143 | -106.16803 | 35859 ft | 350 kts | 265° |
| 2026-05-05 02:10 | 39.81863 | -106.19933 | 36090 ft | 345 kts | 264° |
| 2026-05-05 02:10 | 39.81587 | -106.23015 | 36079 ft | 346 kts | 264° |
| 2026-05-05 02:10 | 39.81029 | -106.29250 | 36079 ft | 348 kts | 264° |
| 2026-05-05 02:11 | 39.80466 | -106.35506 | 36087 ft | 347 kts | 262° |
| 2026-05-05 02:11 | 39.79900 | -106.41721 | 36094 ft | 347 kts | 264° |
| 2026-05-05 02:12 | 39.79046 | -106.51035 | 36735 ft | 345 kts | 264° |
| 2026-05-05 02:12 | 39.78755 | -106.54092 | 37128 ft | 341 kts | 262° |
| 2026-05-05 02:13 | 39.78424 | -106.57152 | 37314 ft | 341 kts | 262° |
| 2026-05-05 02:13 | 39.78097 | -106.60171 | 37553 ft | 340 kts | 263° |
| 2026-05-05 02:13 | 39.77767 | -106.63223 | 37903 ft | 336 kts | 262° |
| 2026-05-05 02:13 | 39.77441 | -106.66204 | 38147 ft | 333 kts | 262° |
| 2026-05-05 02:14 | 39.77117 | -106.69190 | 38121 ft | 333 kts | 263° |
| 2026-05-05 02:14 | 39.76469 | -106.75122 | 38130 ft | 331 kts | 261° |
| 2026-05-05 02:15 | 39.75818 | -106.81024 | 38090 ft | 333 kts | 262° |
| 2026-05-05 02:15 | 39.75161 | -106.86994 | 38067 ft | 333 kts | 261° |
| 2026-05-05 02:16 | 39.74504 | -106.92912 | 38056 ft | 332 kts | 262° |
| 2026-05-05 02:16 | 39.73841 | -106.98856 | 38080 ft | 333 kts | 262° |
| 2026-05-05 02:17 | 39.73176 | -107.04810 | 38083 ft | 335 kts | 260° |
| 2026-05-05 02:17 | 39.72509 | -107.10730 | 38081 ft | 331 kts | 261° |
| 2026-05-05 02:18 | 39.71847 | -107.16620 | 38100 ft | 333 kts | 262° |
| 2026-05-05 02:18 | 39.71170 | -107.22572 | 38108 ft | 332 kts | 262° |
| 2026-05-05 02:19 | 39.70493 | -107.28484 | 38106 ft | 333 kts | 261° |
| 2026-05-05 02:19 | 39.69815 | -107.34412 | 38078 ft | 334 kts | 262° |
| 2026-05-05 02:20 | 39.69135 | -107.40336 | 38076 ft | 333 kts | 260° |
| 2026-05-05 02:20 | 39.68448 | -107.46255 | 38068 ft | 333 kts | 262° |
| 2026-05-05 02:21 | 39.67760 | -107.52177 | 38082 ft | 332 kts | 261° |
| 2026-05-05 02:21 | 39.67067 | -107.58123 | 38062 ft | 333 kts | 259° |
| 2026-05-05 02:22 | 39.66373 | -107.64027 | 38069 ft | 335 kts | 261° |
| 2026-05-05 02:22 | 39.65671 | -107.70013 | 38057 ft | 335 kts | 259° |
| 2026-05-05 02:23 | 39.64962 | -107.75983 | 38061 ft | 335 kts | 259° |
| 2026-05-05 02:23 | 39.64264 | -107.81863 | 38039 ft | 332 kts | 259° |
| 2026-05-05 02:24 | 39.63552 | -107.87823 | 38035 ft | 334 kts | 259° |
| 2026-05-05 02:24 | 39.62842 | -107.93737 | 38029 ft | 335 kts | 258° |
| 2026-05-05 02:25 | 39.62124 | -107.99711 | 38034 ft | 334 kts | 258° |
| 2026-05-05 02:25 | 39.61409 | -108.05624 | 38042 ft | 335 kts | 258° |
| 2026-05-05 02:26 | 39.60686 | -108.11540 | 38025 ft | 332 kts | 259° |
| 2026-05-05 02:26 | 39.59965 | -108.17462 | 38030 ft | 335 kts | 258° |
| 2026-05-05 02:27 | 39.59233 | -108.23447 | 38024 ft | 336 kts | 258° |
| 2026-05-05 02:27 | 39.58497 | -108.29401 | 38014 ft | 336 kts | 259° |
| 2026-05-05 02:28 | 39.57761 | -108.35385 | 38021 ft | 337 kts | 259° |
| 2026-05-05 02:28 | 39.57018 | -108.41356 | 38005 ft | 337 kts | 259° |
| 2026-05-05 02:29 | 39.56273 | -108.47323 | 38003 ft | 336 kts | 258° |
| 2026-05-05 02:29 | 39.55527 | -108.53286 | 37994 ft | 337 kts | 258° |
| 2026-05-05 02:30 | 39.54774 | -108.59249 | 37985 ft | 337 kts | 259° |
| 2026-05-05 02:30 | 39.54020 | -108.65221 | 37976 ft | 337 kts | 258° |
| 2026-05-05 02:31 | 39.53258 | -108.71206 | 38001 ft | 339 kts | 258° |
| 2026-05-05 02:31 | 39.52501 | -108.77177 | 37987 ft | 337 kts | 257° |
| 2026-05-05 02:32 | 39.51735 | -108.83142 | 37999 ft | 337 kts | 257° |
| 2026-05-05 02:32 | 39.50966 | -108.89138 | 37988 ft | 340 kts | 257° |
| 2026-05-05 02:33 | 39.50187 | -108.95159 | 37988 ft | 339 kts | 259° |
| 2026-05-05 02:33 | 39.49411 | -109.01159 | 37993 ft | 339 kts | 257° |
| 2026-05-05 02:34 | 39.48643 | -109.07055 | 37990 ft | 340 kts | 257° |
| 2026-05-05 02:34 | 39.47858 | -109.13069 | 37980 ft | 338 kts | 257° |
| 2026-05-05 02:35 | 39.47072 | -109.19044 | 37976 ft | 339 kts | 257° |
| 2026-05-05 02:35 | 39.46278 | -109.25052 | 37974 ft | 340 kts | 258° |
| 2026-05-05 02:36 | 39.45487 | -109.31057 | 37972 ft | 339 kts | 257° |
| 2026-05-05 02:36 | 39.44690 | -109.37038 | 37973 ft | 339 kts | 256° |
| 2026-05-05 02:37 | 39.43895 | -109.43016 | 37965 ft | 339 kts | 256° |
| 2026-05-05 02:37 | 39.43091 | -109.49006 | 37959 ft | 339 kts | 257° |
| 2026-05-05 02:38 | 39.42283 | -109.55016 | 37956 ft | 341 kts | 256° |
| 2026-05-05 02:38 | 39.41468 | -109.61050 | 37958 ft | 340 kts | 256° |
| 2026-05-05 02:39 | 39.40652 | -109.67046 | 37988 ft | 340 kts | 257° |
| 2026-05-05 02:39 | 39.39835 | -109.73062 | 37979 ft | 339 kts | 257° |
| 2026-05-05 02:40 | 39.39011 | -109.79083 | 37981 ft | 342 kts | 256° |
| 2026-05-05 02:40 | 39.38181 | -109.85144 | 37955 ft | 343 kts | 255° |
| 2026-05-05 02:41 | 39.37350 | -109.91177 | 37946 ft | 343 kts | 255° |
| 2026-05-05 02:41 | 39.36514 | -109.97217 | 37941 ft | 342 kts | 256° |
| 2026-05-05 02:42 | 39.35710 | -110.03263 | 37933 ft | 345 kts | 255° |
| 2026-05-05 02:42 | 39.34887 | -110.09396 | 37954 ft | 346 kts | 257° |
| 2026-05-05 02:43 | 39.34069 | -110.15500 | 37944 ft | 345 kts | 257° |
| 2026-05-05 02:43 | 39.33256 | -110.21531 | 37953 ft | 343 kts | 256° |
| 2026-05-05 02:44 | 39.32436 | -110.27580 | 37949 ft | 344 kts | 256° |
| 2026-05-05 02:44 | 39.31610 | -110.33669 | 37941 ft | 347 kts | 255° |
| 2026-05-05 02:45 | 39.30774 | -110.39787 | 37934 ft | 347 kts | 255° |
| 2026-05-05 02:45 | 39.29927 | -110.45947 | 37944 ft | 349 kts | 256° |
| 2026-05-05 02:46 | 39.29084 | -110.52087 | 37939 ft | 348 kts | 257° |
| 2026-05-05 02:46 | 39.28232 | -110.58240 | 37944 ft | 349 kts | 257° |
| 2026-05-05 02:47 | 39.27379 | -110.64391 | 37948 ft | 350 kts | 256° |
| 2026-05-05 02:47 | 39.26523 | -110.70551 | 37947 ft | 351 kts | 254° |
| 2026-05-05 02:48 | 39.25652 | -110.76758 | 37974 ft | 353 kts | 255° |
| 2026-05-05 02:48 | 39.24784 | -110.82940 | 37972 ft | 353 kts | 256° |
| 2026-05-05 02:49 | 39.23902 | -110.89191 | 37965 ft | 354 kts | 256° |
| 2026-05-05 02:49 | 39.23023 | -110.95406 | 37964 ft | 355 kts | 254° |
| 2026-05-05 02:50 | 39.22127 | -111.01700 | 37969 ft | 355 kts | 256° |
| 2026-05-05 02:50 | 39.21240 | -111.07941 | 37964 ft | 357 kts | 255° |
| 2026-05-05 02:51 | 39.20341 | -111.14197 | 37979 ft | 357 kts | 255° |
| 2026-05-05 02:51 | 39.19435 | -111.20510 | 37997 ft | 360 kts | 255° |
| 2026-05-05 02:52 | 39.18522 | -111.26839 | 38007 ft | 360 kts | 255° |
| 2026-05-05 02:52 | 39.17604 | -111.33157 | 38000 ft | 362 kts | 255° |
| 2026-05-05 02:53 | 39.16678 | -111.39536 | 37986 ft | 362 kts | 255° |
| 2026-05-05 02:53 | 39.15749 | -111.45886 | 37998 ft | 363 kts | 255° |
| 2026-05-05 02:54 | 39.14817 | -111.52251 | 38008 ft | 363 kts | 255° |
| 2026-05-05 02:54 | 39.13880 | -111.58601 | 37988 ft | 364 kts | 254° |
| 2026-05-05 02:55 | 39.12933 | -111.65009 | 37961 ft | 367 kts | 255° |
| 2026-05-05 02:55 | 39.11970 | -111.71494 | 37941 ft | 367 kts | 254° |
| 2026-05-05 02:56 | 39.11011 | -111.77927 | 37942 ft | 368 kts | 255° |
| 2026-05-05 02:56 | 39.10048 | -111.84380 | 37932 ft | 371 kts | 254° |
| 2026-05-05 02:57 | 39.09065 | -111.90906 | 37926 ft | 371 kts | 254° |
| 2026-05-05 02:57 | 39.08080 | -111.97439 | 37931 ft | 374 kts | 255° |
| 2026-05-05 02:58 | 39.07093 | -112.03960 | 37942 ft | 376 kts | 255° |
| 2026-05-05 02:58 | 39.06081 | -112.10611 | 37937 ft | 379 kts | 255° |
| 2026-05-05 02:59 | 39.05067 | -112.17261 | 37925 ft | 380 kts | 255° |
| 2026-05-05 02:59 | 39.04049 | -112.23899 | 37936 ft | 382 kts | 255° |
| 2026-05-05 03:00 | 39.03014 | -112.30624 | 37948 ft | 383 kts | 255° |
| 2026-05-05 03:00 | 39.01990 | -112.37262 | 37922 ft | 383 kts | 255° |
| 2026-05-05 03:01 | 39.00946 | -112.43999 | 37918 ft | 385 kts | 254° |
| 2026-05-05 03:01 | 38.99895 | -112.50726 | 37903 ft | 388 kts | 255° |
| 2026-05-05 03:02 | 38.98834 | -112.57523 | 37910 ft | 388 kts | 254° |
| 2026-05-05 03:02 | 38.97765 | -112.64318 | 37917 ft | 391 kts | 254° |
| 2026-05-05 03:03 | 38.96688 | -112.71146 | 37937 ft | 391 kts | 255° |
| 2026-05-05 03:03 | 38.95602 | -112.78014 | 37931 ft | 391 kts | 254° |
| 2026-05-05 03:04 | 38.94514 | -112.84860 | 37933 ft | 394 kts | 254° |
| 2026-05-05 03:04 | 38.93416 | -112.91739 | 37932 ft | 393 kts | 254° |
| 2026-05-05 03:05 | 38.92316 | -112.98605 | 37933 ft | 396 kts | 254° |
| 2026-05-05 03:05 | 38.91210 | -113.05477 | 37920 ft | 398 kts | 254° |
| 2026-05-05 03:06 | 38.90095 | -113.12391 | 37926 ft | 396 kts | 254° |
| 2026-05-05 03:06 | 38.88963 | -113.19363 | 37931 ft | 400 kts | 255° |
| 2026-05-05 03:07 | 38.87830 | -113.26325 | 37932 ft | 403 kts | 254° |
| 2026-05-05 03:07 | 38.86682 | -113.33347 | 37945 ft | 403 kts | 255° |
| 2026-05-05 03:08 | 38.85526 | -113.40396 | 37939 ft | 403 kts | 255° |
| 2026-05-05 03:08 | 38.84369 | -113.47418 | 37941 ft | 404 kts | 255° |
| 2026-05-05 03:09 | 38.83203 | -113.54471 | 37946 ft | 406 kts | 255° |
| 2026-05-05 03:09 | 38.82036 | -113.61498 | 37950 ft | 406 kts | 254° |
| 2026-05-05 03:10 | 38.80848 | -113.68615 | 37953 ft | 407 kts | 254° |
| 2026-05-05 03:10 | 38.79669 | -113.75662 | 37966 ft | 409 kts | 254° |
| 2026-05-05 03:11 | 38.78476 | -113.82767 | 37956 ft | 409 kts | 254° |
| 2026-05-05 03:11 | 38.77276 | -113.89880 | 37949 ft | 410 kts | 254° |
| 2026-05-05 03:12 | 38.76060 | -113.97053 | 37951 ft | 414 kts | 254° |
| 2026-05-05 03:12 | 38.74831 | -114.04283 | 37947 ft | 415 kts | 254° |
| 2026-05-05 03:13 | 38.73613 | -114.11414 | 37965 ft | 412 kts | 254° |
| 2026-05-05 03:13 | 38.72382 | -114.18599 | 37963 ft | 414 kts | 254° |
| 2026-05-05 03:14 | 38.71153 | -114.25737 | 37963 ft | 414 kts | 255° |
| 2026-05-05 03:14 | 38.69906 | -114.32961 | 37957 ft | 415 kts | 254° |
| 2026-05-05 03:15 | 38.68660 | -114.40140 | 37953 ft | 416 kts | 255° |
| 2026-05-05 03:15 | 38.67409 | -114.47327 | 37950 ft | 416 kts | 254° |
| 2026-05-05 03:16 | 38.66150 | -114.54530 | 37952 ft | 418 kts | 254° |
| 2026-05-05 03:16 | 38.64878 | -114.61775 | 37953 ft | 416 kts | 254° |
| 2026-05-05 03:17 | 38.63604 | -114.69011 | 37969 ft | 419 kts | 253° |
| 2026-05-05 03:17 | 38.62323 | -114.76252 | 37961 ft | 419 kts | 253° |
| 2026-05-05 03:18 | 38.61034 | -114.83516 | 37965 ft | 421 kts | 254° |
| 2026-05-05 03:18 | 38.59741 | -114.90775 | 37956 ft | 419 kts | 253° |
| 2026-05-05 03:19 | 38.57800 | -115.01616 | 37953 ft | 420 kts | 253° |
| 2026-05-05 03:19 | 38.56490 | -115.08897 | 37955 ft | 421 kts | 253° |
| 2026-05-05 03:20 | 38.55187 | -115.16115 | 37956 ft | 421 kts | 253° |
| 2026-05-05 03:20 | 38.53864 | -115.23406 | 37962 ft | 422 kts | 253° |
| 2026-05-05 03:21 | 38.52538 | -115.30694 | 37955 ft | 422 kts | 253° |
| 2026-05-05 03:21 | 38.51209 | -115.37965 | 37944 ft | 422 kts | 253° |
| 2026-05-05 03:22 | 38.49885 | -115.45192 | 37934 ft | 421 kts | 254° |
| 2026-05-05 03:22 | 38.48552 | -115.52438 | 37929 ft | 422 kts | 253° |
| 2026-05-05 03:23 | 38.47197 | -115.59762 | 37934 ft | 423 kts | 253° |
| 2026-05-05 03:23 | 38.45851 | -115.67030 | 37931 ft | 420 kts | 253° |
| 2026-05-05 03:24 | 38.44506 | -115.74251 | 37941 ft | 423 kts | 253° |
| 2026-05-05 03:24 | 38.43149 | -115.81522 | 37933 ft | 422 kts | 253° |
| 2026-05-05 03:25 | 38.41787 | -115.88788 | 37948 ft | 422 kts | 253° |
| 2026-05-05 03:25 | 38.40427 | -115.96009 | 37940 ft | 421 kts | 253° |
| 2026-05-05 03:26 | 38.39053 | -116.03288 | 37940 ft | 422 kts | 253° |
| 2026-05-05 03:26 | 38.37681 | -116.10526 | 37934 ft | 423 kts | 253° |
| 2026-05-05 03:27 | 38.36301 | -116.17783 | 37933 ft | 421 kts | 253° |
| 2026-05-05 03:27 | 38.34924 | -116.24994 | 37932 ft | 423 kts | 253° |
| 2026-05-05 03:28 | 38.33529 | -116.32272 | 37930 ft | 424 kts | 252° |
| 2026-05-05 03:28 | 38.31948 | -116.39500 | 37926 ft | 422 kts | 251° |
| 2026-05-05 03:29 | 38.30347 | -116.46622 | 37924 ft | 422 kts | 250° |
| 2026-05-05 03:29 | 38.28722 | -116.53832 | 37921 ft | 425 kts | 251° |
| 2026-05-05 03:30 | 38.27097 | -116.61029 | 37915 ft | 422 kts | 251° |
| 2026-05-05 03:30 | 38.25480 | -116.68165 | 37923 ft | 423 kts | 250° |
| 2026-05-05 03:31 | 38.23837 | -116.75388 | 37921 ft | 426 kts | 250° |
| 2026-05-05 03:31 | 38.22210 | -116.82530 | 37921 ft | 423 kts | 250° |
| 2026-05-05 03:32 | 38.20566 | -116.89716 | 37918 ft | 424 kts | 250° |
| 2026-05-05 03:32 | 38.18921 | -116.96888 | 37908 ft | 422 kts | 250° |
| 2026-05-05 03:33 | 38.17263 | -117.04089 | 37897 ft | 422 kts | 250° |
| 2026-05-05 03:33 | 38.15601 | -117.11285 | 37898 ft | 425 kts | 250° |
| 2026-05-05 03:34 | 38.13939 | -117.18460 | 37899 ft | 423 kts | 250° |
| 2026-05-05 03:34 | 38.12270 | -117.25641 | 37893 ft | 425 kts | 250° |
| 2026-05-05 03:35 | 38.10611 | -117.32832 | 37889 ft | 424 kts | 250° |
| 2026-05-05 03:35 | 38.08949 | -117.40028 | 37881 ft | 426 kts | 250° |
| 2026-05-05 03:36 | 38.07275 | -117.47250 | 37868 ft | 426 kts | 250° |
| 2026-05-05 03:36 | 38.05596 | -117.54478 | 37871 ft | 429 kts | 250° |
| 2026-05-05 03:37 | 38.03911 | -117.61704 | 37874 ft | 429 kts | 250° |
| 2026-05-05 03:37 | 38.02226 | -117.68909 | 37880 ft | 427 kts | 250° |
| 2026-05-05 03:38 | 38.00561 | -117.76141 | 37910 ft | 431 kts | 253° |
| 2026-05-05 03:38 | 37.99662 | -117.83665 | 37905 ft | 434 kts | 257° |
| 2026-05-05 03:39 | 37.98854 | -117.91191 | 37892 ft | 434 kts | 258° |
| 2026-05-05 03:39 | 37.98047 | -117.98796 | 37881 ft | 432 kts | 258° |
| 2026-05-05 03:40 | 37.97248 | -118.06287 | 37882 ft | 433 kts | 258° |
| 2026-05-05 03:40 | 37.96433 | -118.13905 | 37902 ft | 437 kts | 258° |
| 2026-05-05 03:41 | 37.95615 | -118.21530 | 37879 ft | 437 kts | 258° |
| 2026-05-05 03:41 | 37.94793 | -118.29123 | 37890 ft | 438 kts | 259° |
| 2026-05-05 03:42 | 37.93959 | -118.36790 | 37895 ft | 442 kts | 258° |
| 2026-05-05 03:42 | 37.93126 | -118.44404 | 37910 ft | 440 kts | 259° |
| 2026-05-05 03:43 | 37.92278 | -118.52100 | 37920 ft | 440 kts | 259° |
| 2026-05-05 03:43 | 37.91428 | -118.59765 | 37904 ft | 445 kts | 259° |
| 2026-05-05 03:44 | 37.90571 | -118.67459 | 37920 ft | 443 kts | 258° |
| 2026-05-05 03:44 | 37.89704 | -118.75191 | 37930 ft | 443 kts | 259° |
| 2026-05-05 03:45 | 37.88831 | -118.82928 | 37921 ft | 446 kts | 259° |
| 2026-05-05 03:45 | 37.87955 | -118.90650 | 37945 ft | 446 kts | 259° |
| 2026-05-05 03:46 | 37.87071 | -118.98405 | 37974 ft | 447 kts | 259° |
| 2026-05-05 03:46 | 37.86176 | -119.06179 | 37961 ft | 448 kts | 259° |
| 2026-05-05 03:47 | 37.85276 | -119.13966 | 37950 ft | 450 kts | 259° |
| 2026-05-05 03:47 | 37.84366 | -119.21801 | 37925 ft | 450 kts | 259° |
| 2026-05-05 03:48 | 37.83453 | -119.29605 | 37970 ft | 452 kts | 259° |
| 2026-05-05 03:48 | 37.82527 | -119.37476 | 37953 ft | 453 kts | 260° |
| 2026-05-05 03:49 | 37.81604 | -119.45287 | 37979 ft | 452 kts | 260° |
| 2026-05-05 03:49 | 37.80665 | -119.53168 | 37962 ft | 455 kts | 260° |
| 2026-05-05 03:50 | 37.79720 | -119.61059 | 37958 ft | 457 kts | 260° |
| 2026-05-05 03:50 | 37.78764 | -119.69005 | 37947 ft | 454 kts | 259° |
| 2026-05-05 03:51 | 37.78300 | -119.72848 | 37932 ft | 440 kts | 260° |
| 2026-05-05 03:51 | 37.77842 | -119.76630 | 37594 ft | 429 kts | 260° |
| 2026-05-05 03:51 | 37.77387 | -119.80356 | 36725 ft | 438 kts | 260° |
| 2026-05-05 03:51 | 37.76918 | -119.84186 | 35975 ft | 443 kts | 261° |
| 2026-05-05 03:52 | 37.76454 | -119.87974 | 35342 ft | 445 kts | 262° |
| 2026-05-05 03:52 | 37.75984 | -119.91812 | 34788 ft | 441 kts | 262° |
| 2026-05-05 03:52 | 37.75514 | -119.95637 | 34202 ft | 448 kts | 262° |
| 2026-05-05 03:52 | 37.75027 | -119.99602 | 33616 ft | 466 kts | 263° |
| 2026-05-05 03:53 | 37.74521 | -120.03693 | 33009 ft | 477 kts | 263° |
| 2026-05-05 03:53 | 37.74007 | -120.07830 | 32352 ft | 481 kts | 264° |
| 2026-05-05 03:53 | 37.73491 | -120.11976 | 31667 ft | 483 kts | 264° |
| 2026-05-05 03:53 | 37.72967 | -120.16181 | 30963 ft | 489 kts | 264° |
| 2026-05-05 03:54 | 37.72436 | -120.20423 | 30247 ft | 494 kts | 265° |
| 2026-05-05 03:54 | 37.71898 | -120.24724 | 29449 ft | 498 kts | 265° |
| 2026-05-05 03:54 | 37.71364 | -120.28969 | 28754 ft | 493 kts | 264° |
| 2026-05-05 03:54 | 37.70826 | -120.33223 | 28112 ft | 483 kts | 264° |
| 2026-05-05 03:55 | 37.70299 | -120.37376 | 27381 ft | 477 kts | 264° |
| 2026-05-05 03:55 | 37.69794 | -120.41406 | 26878 ft | 468 kts | 265° |
| 2026-05-05 03:55 | 37.69326 | -120.45473 | 26262 ft | 468 kts | 265° |
| 2026-05-05 03:55 | 37.68854 | -120.49553 | 25622 ft | 469 kts | 265° |
| 2026-05-05 03:56 | 37.68385 | -120.53575 | 24969 ft | 464 kts | 265° |
| 2026-05-05 03:56 | 37.67922 | -120.57535 | 24344 ft | 456 kts | 264° |
| 2026-05-05 03:56 | 37.67460 | -120.61471 | 23792 ft | 449 kts | 264° |
| 2026-05-05 03:56 | 37.67004 | -120.65350 | 23304 ft | 446 kts | 264° |
| 2026-05-05 03:57 | 37.66554 | -120.69170 | 22762 ft | 448 kts | 264° |
| 2026-05-05 03:57 | 37.66096 | -120.73033 | 22013 ft | 440 kts | 264° |
| 2026-05-05 03:57 | 37.65654 | -120.76728 | 21690 ft | 415 kts | 263° |
| 2026-05-05 03:57 | 37.65270 | -120.79932 | 21163 ft | 419 kts | 264° |
| 2026-05-05 03:58 | 37.64833 | -120.83578 | 20573 ft | 416 kts | 263° |
| 2026-05-05 03:58 | 37.64404 | -120.87135 | 20010 ft | 409 kts | 263° |
| 2026-05-05 03:58 | 37.63980 | -120.90638 | 19428 ft | 401 kts | 263° |
| 2026-05-05 03:58 | 37.63567 | -120.94043 | 18885 ft | 395 kts | 263° |
| 2026-05-05 03:59 | 37.63144 | -120.97433 | 18390 ft | 391 kts | 262° |
| 2026-05-05 03:59 | 37.62690 | -121.00821 | 17872 ft | 389 kts | 262° |
| 2026-05-05 03:59 | 37.62248 | -121.04145 | 17347 ft | 384 kts | 262° |
| 2026-05-05 03:59 | 37.61809 | -121.07429 | 16835 ft | 379 kts | 262° |
| 2026-05-05 04:00 | 37.61377 | -121.10656 | 16336 ft | 373 kts | 262° |
| 2026-05-05 04:00 | 37.60946 | -121.13871 | 15844 ft | 371 kts | 262° |
| 2026-05-05 04:00 | 37.60519 | -121.17052 | 15368 ft | 369 kts | 262° |
| 2026-05-05 04:00 | 37.60091 | -121.20225 | 14859 ft | 363 kts | 262° |
| 2026-05-05 04:01 | 37.59676 | -121.23305 | 14400 ft | 357 kts | 262° |
| 2026-05-05 04:01 | 37.59265 | -121.26358 | 13944 ft | 353 kts | 263° |
| 2026-05-05 04:01 | 37.58907 | -121.29415 | 13483 ft | 351 kts | 264° |
| 2026-05-05 04:01 | 37.58563 | -121.32446 | 13023 ft | 349 kts | 264° |
| 2026-05-05 04:02 | 37.58222 | -121.35413 | 12566 ft | 345 kts | 264° |
| 2026-05-05 04:02 | 37.57877 | -121.38416 | 12099 ft | 341 kts | 263° |
| 2026-05-05 04:02 | 37.57539 | -121.41343 | 11658 ft | 338 kts | 263° |
| 2026-05-05 04:02 | 37.57204 | -121.44237 | 11225 ft | 336 kts | 263° |
| 2026-05-05 04:03 | 37.56867 | -121.47149 | 10756 ft | 333 kts | 263° |
| 2026-05-05 04:03 | 37.56535 | -121.50002 | 10331 ft | 329 kts | 263° |
| 2026-05-05 04:03 | 37.56209 | -121.52795 | 10159 ft | 314 kts | 263° |
| 2026-05-05 04:03 | 37.55899 | -121.55447 | 10105 ft | 297 kts | 263° |
| 2026-05-05 04:04 | 37.55609 | -121.57922 | 10081 ft | 279 kts | 264° |
| 2026-05-05 04:04 | 37.55332 | -121.60291 | 10069 ft | 273 kts | 263° |
| 2026-05-05 04:04 | 37.54997 | -121.62697 | 10085 ft | 285 kts | 257° |
| 2026-05-05 04:04 | 37.54431 | -121.65126 | 9805 ft | 294 kts | 255° |
| 2026-05-05 04:05 | 37.53850 | -121.67582 | 9374 ft | 290 kts | 254° |
| 2026-05-05 04:05 | 37.53278 | -121.69993 | 8992 ft | 282 kts | 254° |
| 2026-05-05 04:05 | 37.52729 | -121.72298 | 8792 ft | 265 kts | 254° |
| 2026-05-05 04:05 | 37.52200 | -121.74519 | 8703 ft | 272 kts | 254° |
| 2026-05-05 04:06 | 37.51650 | -121.76819 | 8421 ft | 280 kts | 254° |
| 2026-05-05 04:06 | 37.51108 | -121.79083 | 8193 ft | 259 kts | 253° |
| 2026-05-05 04:06 | 37.50596 | -121.81218 | 7995 ft | 255 kts | 253° |
| 2026-05-05 04:06 | 37.50092 | -121.83323 | 7598 ft | 246 kts | 253° |
| 2026-05-05 04:07 | 37.49606 | -121.85349 | 7283 ft | 236 kts | 253° |
| 2026-05-05 04:07 | 37.49347 | -121.87313 | 7015 ft | 224 kts | 278° |
| 2026-05-05 04:07 | 37.49915 | -121.89009 | 7007 ft | 200 kts | 309° |
| 2026-05-05 04:07 | 37.50828 | -121.90298 | 6981 ft | 198 kts | 312° |
| 2026-05-05 04:08 | 37.51788 | -121.91582 | 6983 ft | 207 kts | 313° |
| 2026-05-05 04:08 | 37.52774 | -121.92904 | 6960 ft | 203 kts | 313° |
| 2026-05-05 04:08 | 37.53736 | -121.94190 | 6964 ft | 201 kts | 313° |
| 2026-05-05 04:08 | 37.54714 | -121.95493 | 6761 ft | 211 kts | 312° |
| 2026-05-05 04:09 | 37.55735 | -121.96838 | 6416 ft | 213 kts | 313° |
| 2026-05-05 04:09 | 37.56775 | -121.98203 | 6067 ft | 216 kts | 313° |
| 2026-05-05 04:09 | 37.57805 | -121.99550 | 5726 ft | 216 kts | 312° |
| 2026-05-05 04:09 | 37.58845 | -122.00919 | 5362 ft | 215 kts | 313° |
| 2026-05-05 04:10 | 37.59692 | -122.02441 | 5024 ft | 209 kts | 285° |
| 2026-05-05 04:10 | 37.59675 | -122.04129 | 4972 ft | 187 kts | 245° |
| 2026-05-05 04:10 | 37.58821 | -122.05282 | 5017 ft | 188 kts | 204° |
| 2026-05-05 04:10 | 37.57499 | -122.05602 | 5005 ft | 197 kts | 184° |
| 2026-05-05 04:11 | 37.56107 | -122.05657 | 4733 ft | 201 kts | 183° |
| 2026-05-05 04:11 | 37.54715 | -122.05710 | 4435 ft | 202 kts | 183° |
| 2026-05-05 04:11 | 37.53315 | -122.05754 | 4196 ft | 197 kts | 182° |
| 2026-05-05 04:11 | 37.51949 | -122.05795 | 3955 ft | 191 kts | 183° |
| 2026-05-05 04:12 | 37.50747 | -122.06135 | 3937 ft | 176 kts | 216° |
| 2026-05-05 04:12 | 37.50030 | -122.07395 | 3997 ft | 178 kts | 258° |
| 2026-05-05 04:12 | 37.50014 | -122.08882 | 3954 ft | 166 kts | 283° |
| 2026-05-05 04:12 | 37.50503 | -122.10166 | 3980 ft | 164 kts | 301° |
| 2026-05-05 04:13 | 37.51083 | -122.11440 | 3971 ft | 168 kts | 298° |
| 2026-05-05 04:13 | 37.51622 | -122.12710 | 3959 ft | 165 kts | 297° |
| 2026-05-05 04:13 | 37.52173 | -122.14016 | 3837 ft | 171 kts | 297° |
| 2026-05-05 04:13 | 37.52727 | -122.15326 | 3622 ft | 168 kts | 297° |
| 2026-05-05 04:14 | 37.53276 | -122.16623 | 3393 ft | 163 kts | 298° |
| 2026-05-05 04:14 | 37.53806 | -122.17877 | 3182 ft | 161 kts | 298° |
| 2026-05-05 04:14 | 37.54339 | -122.19135 | 2976 ft | 162 kts | 298° |
| 2026-05-05 04:14 | 37.54870 | -122.20389 | 2759 ft | 162 kts | 298° |
| 2026-05-05 04:15 | 37.55403 | -122.21648 | 2539 ft | 161 kts | 298° |
| 2026-05-05 04:15 | 37.55926 | -122.22887 | 2322 ft | 160 kts | 298° |
| 2026-05-05 04:15 | 37.56447 | -122.24123 | 2107 ft | 159 kts | 297° |
| 2026-05-05 04:15 | 37.56968 | -122.25352 | 1890 ft | 158 kts | 298° |
| 2026-05-05 04:16 | 37.57484 | -122.26566 | 1670 ft | 156 kts | 297° |
| 2026-05-05 04:16 | 37.57977 | -122.27728 | 1490 ft | 142 kts | 297° |
| 2026-05-05 04:16 | 37.58421 | -122.28780 | 1284 ft | 126 kts | 297° |
| 2026-05-05 04:16 | 37.58837 | -122.29721 | 1031 ft | 123 kts | 300° |
| 2026-05-05 04:17 | 37.59263 | -122.30662 | 917 ft | 120 kts | 297° |
| 2026-05-05 04:17 | 37.59654 | -122.31620 | 886 ft | 128 kts | 297° |
| 2026-05-05 04:17 | 37.60068 | -122.32661 | 607 ft | 129 kts | 297° |
| 2026-05-05 04:17 | 37.60476 | -122.33609 | 418 ft | 122 kts | 299° |
| 2026-05-05 04:18 | 37.60876 | -122.34551 | 283 ft | 125 kts | 296° |
| 2026-05-05 04:18 | 37.61298 | -122.35580 | 129 ft | 137 kts | 298° |
| 2026-05-05 04:18 | 37.61714 | -122.36573 | 24 ft | 125 kts | 297° |
| 2026-05-05 04:18 | 37.62072 | -122.37431 | 21 ft | 82 kts | 299° |
| 2026-05-05 04:19 | 37.62195 | -122.37786 | 29 ft | 24 kts | 281° |
| 2026-05-05 04:19 | 37.62211 | -122.37937 | 32 ft | 16 kts | 277° |
| 2026-05-05 04:19 | 37.62226 | -122.38088 | 33 ft | 10 kts | 276° |
| 2026-05-05 04:19 | 37.62227 | -122.38097 | 33 ft | 0 kts | 275° |
| 2026-05-05 04:20 | 37.62228 | -122.38147 | 32 ft | 11 kts | 270° |
| 2026-05-05 04:20 | 37.62225 | -122.38306 | 32 ft | 23 kts | 267° |
| 2026-05-05 04:21 | 37.62217 | -122.38525 | 33 ft | 20 kts | 267° |
| 2026-05-05 04:21 | 37.62170 | -122.38660 | 34 ft | 9 kts | 260° |
| 2026-05-05 04:21 | 37.62189 | -122.38733 | 33 ft | 9 kts | 301° |
| 2026-05-05 04:21 | 37.62219 | -122.38805 | 33 ft | 9 kts | 296° |
| 2026-05-05 04:22 | 37.62249 | -122.38882 | 33 ft | 10 kts | 296° |
| 2026-05-05 04:22 | 37.62260 | -122.38966 | 32 ft | 9 kts | 250° |
| 2026-05-05 04:22 | 37.62239 | -122.39048 | 32 ft | 9 kts | 253° |
| 2026-05-05 04:22 | 37.62206 | -122.39119 | 33 ft | 8 kts | 212° |
| 2026-05-05 04:23 | 37.62156 | -122.39150 | 34 ft | 7 kts | 208° |
| 2026-05-05 04:23 | 37.62107 | -122.39182 | 34 ft | 7 kts | 208° |
| 2026-05-05 04:23 | 37.62054 | -122.39209 | 34 ft | 9 kts | 183° |
| 2026-05-05 04:23 | 37.62011 | -122.39144 | 34 ft | 10 kts | 116° |
| 2026-05-05 04:24 | 37.61982 | -122.39075 | 34 ft | 5 kts | 118° |
| 2026-05-05 04:24 | 37.61979 | -122.39060 | 34 ft | 0 kts | 90° |
| 2026-05-05 04:24 | 37.61982 | -122.39047 | 34 ft | 3 kts | 71° |
| 2026-05-05 04:25 | 37.62005 | -122.39018 | 34 ft | 4 kts | 21° |
| 2026-05-05 04:25 | 37.62030 | -122.39007 | 34 ft | 2 kts | 24° |
| 2026-05-05 04:25 | 37.62034 | -122.39004 | 34 ft | 1 kts | 27° |
| 2026-05-05 04:25 | 37.62041 | -122.38999 | 34 ft | 0 kts | 27° |
| 2026-05-05 04:26 | 37.62041 | -122.39000 | 34 ft | 0 kts | 27° |
| 2026-05-05 04:30 | 37.62041 | -122.38999 | 34 ft | 0 kts | 27° |